Time;durP1;ratioP1;P1;durP2;ratioP2;P2;SDS_P1;SDS_P2;PMS_P1;PMS_P2;Temp;Humidity;BMP_temperature;BMP_pressure;BME280_temperature;BME280_humidity;BME280_pressure;Samples;Min_cycle;Max_cycle;Signal;HPM_P1;HPM_P2
2021/05/02 00:00:01;;;;;;;2.90;1.85;;;;;;;2.85;70.76;101365.75;4813483;29;20041;-79
2021/05/02 00:02:26;;;;;;;3.15;1.90;;;;;;;2.71;70.76;101346.53;4828290;29;20037;-79
2021/05/02 00:04:52;;;;;;;2.67;1.90;;;;;;;2.62;71.14;101339.41;4829060;29;20041;-79
2021/05/02 00:07:17;;;;;;;4.05;2.00;;;;;;;2.93;71.05;101389.84;4828404;29;20077;-79
2021/05/02 00:09:42;;;;;;;5.13;1.90;;;;;;;2.95;71.36;101399.38;4813046;29;20381;-79
2021/05/02 00:12:08;;;;;;;2.60;2.00;;;;;;;2.73;71.42;101368.53;4811377;29;20038;-79
2021/05/02 00:14:33;;;;;;;2.08;1.52;;;;;;;2.84;71.20;101396.81;4859300;29;20026;-79
2021/05/02 00:16:59;;;;;;;3.13;1.58;;;;;;;2.61;71.57;101380.22;4859100;29;20057;-79
2021/05/02 00:19:26;;;;;;;2.20;1.60;;;;;;;2.58;72.00;101385.78;4829595;29;20464;-79
2021/05/02 00:21:52;;;;;;;5.03;1.90;;;;;;;2.49;71.71;101368.84;4845151;29;20043;-79
2021/05/02 00:24:21;;;;;;;3.67;1.80;;;;;;;2.61;71.98;101403.28;4814566;29;20038;-79
2021/05/02 00:26:47;;;;;;;1.80;1.45;;;;;;;2.28;72.07;101357.41;4811701;29;20060;-80
2021/05/02 00:29:16;;;;;;;3.47;1.90;;;;;;;2.53;72.21;101390.69;4825547;29;20038;-80
2021/05/02 00:31:42;;;;;;;3.08;1.70;;;;;;;2.47;72.11;101388.53;4846024;29;20085;-80
2021/05/02 00:34:10;;;;;;;2.33;1.67;;;;;;;2.47;72.16;101393.84;4829928;29;20022;-80
2021/05/02 00:36:37;;;;;;;3.78;1.98;;;;;;;2.34;72.20;101375.47;4815284;29;20377;-80
2021/05/02 00:39:03;;;;;;;3.78;1.90;;;;;;;2.44;72.41;101397.59;4810980;29;20054;-80
2021/05/02 00:41:33;;;;;;;4.07;2.15;;;;;;;2.37;72.64;101404.41;4828032;29;20094;-79
2021/05/02 00:44:03;;;;;;;3.92;2.10;;;;;;;2.33;72.65;101403.84;4828456;29;20027;-80
2021/05/02 00:46:41;;;;;;;2.72;2.10;;;;;;;2.31;72.86;101399.63;4844405;29;20022;-80
2021/05/02 00:49:19;;;;;;;5.22;2.00;;;;;;;2.18;72.86;101394.53;4829792;29;20040;-80
2021/05/02 00:51:57;;;;;;;4.43;1.92;;;;;;;2.09;73.13;101390.84;4827603;29;20030;-80
2021/05/02 00:54:33;;;;;;;2.97;1.80;;;;;;;2.04;72.89;101401.00;4812854;29;20034;-79
2021/05/02 00:57:06;;;;;;;4.00;2.00;;;;;;;1.96;73.34;101410.59;4837535;29;20365;-80
2021/05/02 00:59:42;;;;;;;3.28;2.22;;;;;;;1.86;73.05;101400.75;4822755;29;20049;-80
2021/05/02 01:02:10;;;;;;;3.90;2.05;;;;;;;1.70;73.18;101384.41;4841709;29;20464;-80
2021/05/02 01:04:40;;;;;;;4.63;2.30;;;;;;;1.52;72.98;101370.84;4827402;29;20038;-79
2021/05/02 01:07:12;;;;;;;2.92;2.45;;;;;;;1.64;73.40;101398.19;4842088;29;20129;-80
2021/05/02 01:09:38;;;;;;;3.20;2.53;;;;;;;1.60;73.43;101386.16;4827662;29;20445;-80
2021/05/02 01:12:08;;;;;;;6.22;3.20;;;;;;;1.61;73.75;101387.81;4812425;29;20098;-79
2021/05/02 01:14:36;;;;;;;11.45;2.97;;;;;;;1.71;73.88;101387.91;4828254;29;20022;-80
2021/05/02 01:17:06;;;;;;;5.25;2.80;;;;;;;1.41;74.07;101331.94;4843267;29;20025;-80
2021/05/02 01:19:32;;;;;;;5.13;2.83;;;;;;;1.69;74.19;101388.03;4841781;29;20026;-79
2021/05/02 01:21:59;;;;;;;5.10;2.60;;;;;;;1.71;74.10;101394.03;4824358;29;20042;-80
2021/05/02 01:24:26;;;;;;;3.88;2.60;;;;;;;1.66;74.38;101388.28;4858414;29;20031;-79
2021/05/02 01:26:52;;;;;;;5.45;2.60;;;;;;;1.63;74.30;101383.25;4838207;29;20041;-80
2021/05/02 01:29:17;;;;;;;6.68;2.60;;;;;;;1.60;74.49;101378.19;4827442;29;20037;-79
2021/05/02 01:31:43;;;;;;;5.43;3.30;;;;;;;1.59;74.58;101380.00;4825473;29;20415;-80
2021/05/02 01:34:10;;;;;;;6.40;3.05;;;;;;;1.50;74.36;101364.84;4830979;29;20530;-80
2021/05/02 01:36:36;;;;;;;6.18;2.70;;;;;;;1.55;74.94;101380.34;4809412;29;20045;-80
2021/05/02 01:39:05;;;;;;;3.28;2.42;;;;;;;0.87;75.08;101274.56;4806661;29;20034;-80
2021/05/02 01:41:30;;;;;;;3.70;2.55;;;;;;;1.43;75.39;101379.56;4849448;29;20037;-80
2021/05/02 01:43:56;;;;;;;5.43;2.80;;;;;;;1.38;75.30;101382.59;4836824;29;20042;-80
2021/05/02 01:46:28;;;;;;;4.88;2.75;;;;;;;1.27;75.37;101366.72;4823407;29;20473;-80
2021/05/02 01:48:53;;;;;;;4.65;3.08;;;;;;;1.24;75.36;101366.97;4838162;29;20116;-81
2021/05/02 01:51:20;;;;;;;4.70;2.92;;;;;;;1.16;75.71;101361.47;4850562;29;20053;-80
2021/05/02 01:53:47;;;;;;;3.85;2.50;;;;;;;0.76;75.56;101305.53;4816883;29;20034;-79
2021/05/02 01:56:15;;;;;;;5.50;3.05;;;;;;;1.14;75.66;101368.69;4830613;29;20090;-80
2021/05/02 01:58:42;;;;;;;3.53;2.50;;;;;;;1.07;75.57;101365.69;4825025;29;20522;-80
2021/05/02 02:01:12;;;;;;;4.07;3.00;;;;;;;1.02;75.83;101356.41;4846071;29;20038;-79
2021/05/02 02:03:38;;;;;;;5.70;2.97;;;;;;;1.10;75.81;101372.56;4847215;29;20034;-80
2021/05/02 02:06:04;;;;;;;3.90;2.92;;;;;;;0.96;75.69;101359.56;4837668;29;20082;-80
2021/05/02 02:08:30;;;;;;;3.92;2.70;;;;;;;1.00;76.08;101374.25;4816975;29;20038;-80
2021/05/02 02:10:57;;;;;;;3.63;2.85;;;;;;;0.90;75.99;101367.03;4848522;29;20053;-79
2021/05/02 02:13:23;;;;;;;4.68;3.15;;;;;;;0.90;76.30;101376.81;4844106;29;20037;-80
2021/05/02 02:15:49;;;;;;;5.00;2.95;;;;;;;0.77;76.33;101353.09;4846244;29;20038;-80
2021/05/02 02:18:16;;;;;;;3.67;2.85;;;;;;;0.87;76.58;101374.41;4851158;29;20066;-79
2021/05/02 02:20:46;;;;;;;4.45;3.25;;;;;;;0.60;76.36;101346.50;4848803;29;20101;-79
2021/05/02 02:23:18;;;;;;;6.25;3.58;;;;;;;0.71;76.62;101377.41;4861646;29;20038;-80
2021/05/02 02:25:48;;;;;;;6.07;3.10;;;;;;;0.69;76.56;101369.56;4842414;29;20029;-79
2021/05/02 02:28:17;;;;;;;5.90;3.03;;;;;;;0.73;76.79;101375.50;4828827;29;20029;-79
2021/05/02 02:30:48;;;;;;;6.50;2.90;;;;;;;0.28;76.65;101309.28;4846488;29;20037;-79
2021/05/02 02:33:14;;;;;;;4.93;3.15;;;;;;;0.60;76.93;101372.97;4846028;29;20037;-80
2021/05/02 02:35:46;;;;;;;7.50;3.47;;;;;;;0.44;77.10;101357.44;4829329;29;20531;-79
2021/05/02 02:38:14;;;;;;;4.60;3.13;;;;;;;0.41;77.19;101360.31;4809068;29;20034;-79
2021/05/02 02:40:41;;;;;;;4.88;3.63;;;;;;;0.48;77.24;101363.34;4812497;29;20026;-80
2021/05/02 02:43:10;;;;;;;7.10;3.78;;;;;;;0.46;77.19;101360.81;4834788;29;20346;-79
2021/05/02 02:45:38;;;;;;;4.97;3.25;;;;;;;0.51;77.24;101373.69;4847464;29;20032;-80
2021/05/02 02:48:05;;;;;;;6.60;3.85;;;;;;;0.49;77.55;101380.88;4845406;29;20030;-79
2021/05/02 02:50:31;;;;;;;7.95;4.00;;;;;;;0.11;77.20;101329.13;4846065;29;20084;-79
2021/05/02 02:53:03;;;;;;;5.70;3.42;;;;;;;0.31;77.47;101353.22;4829435;29;20026;-79
2021/05/02 02:55:31;;;;;;;5.82;3.53;;;;;;;0.44;77.57;101373.31;4828847;29;20025;-79
2021/05/02 02:58:02;;;;;;;3.65;3.05;;;;;;;0.18;77.71;101330.34;4843585;29;20030;-79
2021/05/02 03:00:30;;;;;;;6.05;3.55;;;;;;;0.38;77.78;101372.94;4829369;29;20026;-80
2021/05/02 03:03:01;;;;;;;4.55;3.08;;;;;;;0.36;77.60;101370.41;4843430;29;20026;-80
2021/05/02 03:05:27;;;;;;;4.70;3.40;;;;;;;0.24;77.67;101350.22;4816676;29;20034;-79
2021/05/02 03:07:53;;;;;;;8.00;2.92;;;;;;;0.33;77.94;101365.38;4810268;29;20529;-79
2021/05/02 03:10:19;;;;;;;7.45;3.17;;;;;;;0.26;78.00;101356.19;4821587;29;20033;-80
2021/05/02 03:12:48;;;;;;;3.75;3.30;;;;;;;0.31;78.18;101367.28;4830809;29;20066;-80
2021/05/02 03:15:14;;;;;;;6.20;3.78;;;;;;;0.22;78.10;101345.00;4846073;29;20034;-79
2021/05/02 03:17:42;;;;;;;4.85;3.50;;;;;;;0.32;78.13;101362.84;4843427;29;20471;-79
2021/05/02 03:20:28;;;;;;;4.70;3.30;;;;;;;0.30;77.99;101360.31;4829764;29;20445;-80
2021/05/02 03:22:57;;;;;;;;;;;;;;;0.22;78.17;101362.69;4829405;29;20097;-79
2021/05/02 03:25:26;;;;;;;4.53;2.85;;;;;;;0.22;77.74;101370.66;4830655;29;20011;-79
2021/05/02 03:28:00;;;;;;;5.63;3.80;;;;;;;0.09;78.44;101346.09;4813466;29;20078;-80
2021/05/02 03:30:27;;;;;;;5.50;3.73;;;;;;;0.28;78.02;101367.53;4820159;29;20037;-80
2021/05/02 03:32:54;;;;;;;7.60;3.13;;;;;;;0.25;78.08;101367.75;4819066;29;20286;-79
2021/05/02 03:35:27;;;;;;;4.93;3.10;;;;;;;-0.06;78.05;101329.59;4828972;29;20046;-80
2021/05/02 03:38:07;;;;;;;4.95;3.65;;;;;;;0.18;77.85;101374.50;4832785;29;20034;-79
2021/05/02 03:40:33;;;;;;;9.70;3.40;;;;;;;0.12;77.64;101348.50;4843434;29;20405;-80
2021/05/02 03:42:59;;;;;;;5.53;3.00;;;;;;;0.16;78.00;101342.84;4830439;29;20033;-80
2021/05/02 03:45:24;;;;;;;7.15;3.35;;;;;;;0.33;78.25;101362.72;4829242;29;20114;-79
2021/05/02 03:47:50;;;;;;;4.38;3.47;;;;;;;0.41;77.84;101368.25;4843474;29;20046;-79
2021/05/02 03:50:15;;;;;;;4.60;3.17;;;;;;;0.64;77.67;101369.09;4835843;29;20034;-80
2021/05/02 03:52:41;;;;;;;6.78;3.30;;;;;;;0.87;76.34;101327.53;4829105;29;20048;-79
2021/05/02 03:55:07;;;;;;;6.55;3.55;;;;;;;0.64;75.22;101233.22;4823150;29;20049;-80
2021/05/02 03:57:32;;;;;;;7.97;3.80;;;;;;;1.78;73.98;101355.41;4827522;29;20144;-79
2021/05/02 03:59:58;;;;;;;4.18;3.15;;;;;;;2.19;73.15;101363.53;4827752;29;20044;-79
2021/05/02 04:02:24;;;;;;;6.10;3.20;;;;;;;2.54;72.46;101371.09;4826826;29;20065;-80
2021/05/02 04:04:51;;;;;;;4.85;3.10;;;;;;;2.35;71.54;101279.75;4814114;29;20437;-80
2021/05/02 04:07:16;;;;;;;3.67;2.88;;;;;;;3.30;70.58;101369.63;4843022;29;20058;-80
2021/05/02 04:09:46;;;;;;;5.75;2.72;;;;;;;3.47;69.89;101340.66;4837373;29;20037;-80
2021/05/02 04:12:12;;;;;;;6.32;2.85;;;;;;;3.80;68.96;101346.53;4810611;29;20133;-80
2021/05/02 04:14:40;;;;;;;3.92;2.80;;;;;;;4.16;68.16;101351.09;4794593;29;20142;-79
2021/05/02 04:17:10;;;;;;;5.50;2.72;;;;;;;4.37;67.25;101339.41;4822358;29;20042;-80
2021/05/02 04:19:41;;;;;;;3.67;2.80;;;;;;;4.76;66.33;101361.41;4821535;29;20062;-79
2021/05/02 04:22:08;;;;;;;4.68;2.80;;;;;;;5.01;65.69;101372.41;4812377;29;20524;-80
2021/05/02 04:24:34;;;;;;;4.28;2.88;;;;;;;5.34;64.56;101386.94;4845417;29;20552;-79
2021/05/02 04:27:03;;;;;;;4.55;2.88;;;;;;;5.50;63.84;101387.09;4837292;29;20042;-82
2021/05/02 04:29:33;;;;;;;4.68;2.58;;;;;;;5.77;63.15;101375.50;4841488;29;20120;-81
2021/05/02 04:32:00;;;;;;;4.65;2.53;;;;;;;6.04;62.56;101385.28;4846191;29;20128;-82
2021/05/02 04:34:25;;;;;;;4.88;2.60;;;;;;;5.95;61.56;101327.44;4824693;29;20113;-81
2021/05/02 04:36:52;;;;;;;4.85;2.60;;;;;;;6.50;61.13;101369.88;4838545;29;20397;-81
2021/05/02 04:39:18;;;;;;;5.00;2.55;;;;;;;6.77;60.04;101381.38;4850483;29;20031;-80
2021/05/02 04:41:44;;;;;;;3.83;2.65;;;;;;;6.83;59.61;101375.38;4818696;29;20045;-81
2021/05/02 04:44:10;;;;;;;3.58;2.85;;;;;;;6.74;59.16;101373.66;4822072;29;20062;-81
2021/05/02 04:46:37;;;;;;;5.03;2.80;;;;;;;6.88;59.22;101383.75;4840039;29;20102;-81
2021/05/02 04:49:03;;;;;;;3.58;2.60;;;;;;;6.86;58.82;101367.03;4857023;29;20030;-81
2021/05/02 04:51:28;;;;;;;4.10;2.90;;;;;;;6.85;58.55;101341.28;4835139;29;20522;-81
2021/05/02 04:53:54;;;;;;;4.65;2.90;;;;;;;7.20;58.10;101355.44;4823636;29;20038;-81
2021/05/02 04:56:19;;;;;;;3.00;2.70;;;;;;;7.53;57.36;101383.13;4819692;29;20109;-81
2021/05/02 04:58:45;;;;;;;5.88;2.80;;;;;;;7.64;57.15;101361.38;4865188;29;20005;-82
2021/05/02 05:01:13;;;;;;;5.72;2.47;;;;;;;7.90;56.51;101373.78;4854582;29;20046;-82
2021/05/02 05:03:39;;;;;;;3.88;2.75;;;;;;;8.20;55.69;101367.72;4847432;29;20038;-82
2021/05/02 05:06:04;;;;;;;5.55;2.80;;;;;;;8.51;55.19;101371.53;4834371;29;20018;-83
2021/05/02 05:08:30;;;;;;;3.97;2.28;;;;;;;8.70;55.35;101363.94;4847253;29;20064;-80
2021/05/02 05:10:55;;;;;;;4.28;2.47;;;;;;;9.05;54.25;101380.56;4839915;29;20050;-81
2021/05/02 05:13:21;;;;;;;4.25;2.60;;;;;;;9.37;54.09;101381.41;4825577;29;20083;-81
2021/05/02 05:15:46;;;;;;;4.07;3.00;;;;;;;9.65;53.38;101384.41;4850369;29;20117;-81
2021/05/02 05:18:12;;;;;;;3.70;2.63;;;;;;;9.71;53.43;101369.44;4845019;29;20069;-81
2021/05/02 05:20:37;;;;;;;4.63;2.88;;;;;;;9.92;53.32;101379.50;4842666;29;20098;-81
2021/05/02 05:23:03;;;;;;;3.63;2.50;;;;;;;9.28;54.88;101364.53;4839817;29;20065;-81
2021/05/02 05:25:28;;;;;;;4.72;2.70;;;;;;;8.54;57.61;101384.59;4823525;29;20385;-82
2021/05/02 05:27:53;;;;;;;4.22;2.60;;;;;;;8.04;59.90;101383.81;4861632;29;20037;-82
2021/05/02 05:30:19;;;;;;;4.70;2.58;;;;;;;7.83;60.96;101383.50;4846617;29;20167;-81
2021/05/02 05:32:45;;;;;;;3.00;2.70;;;;;;;7.84;61.19;101380.63;4860269;29;20041;-81
2021/05/02 05:35:11;;;;;;;4.00;3.10;;;;;;;7.91;61.66;101384.34;4830146;29;20030;-82
2021/05/02 05:37:38;;;;;;;6.72;3.53;;;;;;;8.01;61.22;101370.75;4854927;29;20034;-81
2021/05/02 05:40:06;;;;;;;4.63;3.75;;;;;;;8.06;60.92;101356.84;4857753;29;20037;-81
2021/05/02 05:42:32;;;;;;;5.38;3.95;;;;;;;8.31;60.29;101357.63;4828387;29;20030;-82
2021/05/02 05:44:58;;;;;;;5.43;3.30;;;;;;;8.60;60.05;101383.91;4847156;29;20106;-82
2021/05/02 05:47:24;;;;;;;4.43;3.58;;;;;;;8.68;59.69;101389.28;4820450;29;20048;-82
2021/05/02 05:49:49;;;;;;;5.30;3.50;;;;;;;8.66;59.85;101384.06;4864996;29;20043;-82
2021/05/02 05:52:15;;;;;;;5.10;3.00;;;;;;;8.67;60.65;101398.31;4864909;29;20054;-81
2021/05/02 05:54:42;;;;;;;4.40;3.58;;;;;;;8.39;60.84;101387.16;4846750;29;20110;-82
2021/05/02 05:57:08;;;;;;;5.78;3.55;;;;;;;8.06;61.82;101391.69;4856765;29;20030;-82
2021/05/02 05:59:33;;;;;;;4.75;3.30;;;;;;;8.12;61.80;101386.50;4824758;29;20042;-80
2021/05/02 06:01:59;;;;;;;4.93;3.70;;;;;;;8.13;61.69;101406.09;4853933;29;20041;-80
2021/05/02 06:04:24;;;;;;;7.07;3.72;;;;;;;8.18;61.66;101398.41;4848663;29;20034;-79
2021/05/02 06:06:50;;;;;;;5.32;3.90;;;;;;;7.98;61.63;101363.91;4830135;29;20062;-78
2021/05/02 06:09:15;;;;;;;6.93;4.03;;;;;;;8.27;60.84;101409.94;4815394;29;20030;-78
2021/05/02 06:11:41;;;;;;;5.53;3.95;;;;;;;8.22;61.07;101397.06;4814193;29;20058;-78
2021/05/02 06:14:08;;;;;;;6.72;4.05;;;;;;;8.23;60.55;101399.53;4845875;29;20449;-79
2021/05/02 06:16:34;;;;;;;5.22;4.25;;;;;;;8.24;60.82;101405.75;4829989;29;20038;-79
2021/05/02 06:19:00;;;;;;;4.72;3.67;;;;;;;8.11;60.64;101347.31;4837547;29;20037;-78
2021/05/02 06:21:26;;;;;;;4.20;3.80;;;;;;;8.69;60.18;101396.31;4845384;29;20022;-78
2021/05/02 06:23:53;;;;;;;7.45;3.50;;;;;;;8.43;60.77;101367.88;4844235;29;20077;-77
2021/05/02 06:26:19;;;;;;;4.78;3.40;;;;;;;8.78;61.23;101411.38;4830264;29;20073;-78
2021/05/02 06:28:46;;;;;;;6.72;4.47;;;;;;;8.78;60.42;101384.56;4817225;29;20041;-78
2021/05/02 06:31:12;;;;;;;5.22;4.00;;;;;;;8.98;60.29;101403.75;4836165;29;20025;-79
2021/05/02 06:33:39;;;;;;;5.40;4.15;;;;;;;8.87;59.93;101388.88;4838476;29;20048;-78
2021/05/02 06:36:05;;;;;;;6.07;4.55;;;;;;;8.95;60.17;101401.44;4854611;29;20030;-80
2021/05/02 06:38:31;;;;;;;4.95;4.45;;;;;;;8.89;59.91;101408.31;4822925;29;20029;-78
2021/05/02 06:40:56;;;;;;;6.55;4.82;;;;;;;8.47;60.10;101339.69;4848564;29;20113;-78
2021/05/02 06:43:22;;;;;;;6.18;4.72;;;;;;;8.96;59.34;101418.38;4812419;29;20076;-78
2021/05/02 06:45:48;;;;;;;5.30;4.80;;;;;;;8.91;58.85;101384.00;4815209;29;20121;-78
2021/05/02 06:48:13;;;;;;;5.93;4.80;;;;;;;9.07;58.72;101409.91;4844614;29;20068;-77
2021/05/02 06:50:39;;;;;;;5.18;4.68;;;;;;;9.11;58.75;101392.47;4844794;29;20125;-79
2021/05/02 06:53:05;;;;;;;6.65;4.80;;;;;;;9.36;58.71;101414.66;4830904;29;20034;-79
2021/05/02 06:55:30;;;;;;;6.00;4.60;;;;;;;9.22;58.55;101384.00;4816920;29;20129;-78
2021/05/02 06:57:59;;;;;;;6.20;4.75;;;;;;;9.38;57.84;101402.72;4844198;29;20480;-79
2021/05/02 07:00:24;;;;;;;5.78;4.90;;;;;;;9.50;57.37;101407.69;4827812;29;20061;-77
2021/05/02 07:02:51;;;;;;;6.57;5.38;;;;;;;9.46;57.95;101384.88;4843398;29;20034;-78
2021/05/02 07:05:17;;;;;;;5.72;5.13;;;;;;;9.47;57.44;101402.66;4827241;29;20102;-77
2021/05/02 07:07:42;;;;;;;7.47;5.63;;;;;;;9.41;57.42;101380.88;4812748;29;20085;-78
2021/05/02 07:10:15;;;;;;;6.32;5.50;;;;;;;9.60;56.23;101393.03;4828239;29;20098;-78
2021/05/02 07:12:41;;;;;;;8.75;5.22;;;;;;;9.91;56.19;101407.44;4844227;29;20357;-78
2021/05/02 07:15:08;;;;;;;7.32;5.38;;;;;;;9.96;56.67;101405.00;4827779;29;20037;-78
2021/05/02 07:17:34;;;;;;;7.60;5.43;;;;;;;9.84;56.16;101386.63;4812040;29;20045;-78
2021/05/02 07:19:59;;;;;;;7.15;5.22;;;;;;;10.04;55.92;101407.66;4844068;29;20376;-78
2021/05/02 07:22:27;;;;;;;8.43;6.20;;;;;;;10.08;55.74;101379.38;4828188;29;20042;-79
2021/05/02 07:24:52;;;;;;;6.30;5.38;;;;;;;10.20;55.26;101383.31;4830673;29;20524;-79
2021/05/02 07:27:18;;;;;;;8.20;5.55;;;;;;;10.08;55.73;101357.88;4848197;29;20034;-81
2021/05/02 07:29:44;;;;;;;7.85;5.70;;;;;;;10.31;55.34;101382.88;4849878;29;20120;-79
2021/05/02 07:32:09;;;;;;;8.55;6.30;;;;;;;10.57;53.97;101403.16;4864072;29;20037;-81
2021/05/02 07:34:35;;;;;;;8.57;6.10;;;;;;;10.37;54.36;101375.13;4852797;29;20049;-81
2021/05/02 07:37:00;;;;;;;8.90;6.25;;;;;;;10.54;54.08;101404.34;4857403;29;20034;-80
2021/05/02 07:39:27;;;;;;;7.50;6.57;;;;;;;10.26;53.62;101326.09;4844847;29;20026;-80
2021/05/02 07:41:53;;;;;;;9.48;6.40;;;;;;;10.49;53.71;101377.13;4841492;29;20034;-81
2021/05/02 07:44:19;;;;;;;8.43;6.93;;;;;;;10.44;52.77;101376.03;4821614;29;20374;-81
2021/05/02 07:46:44;;;;;;;8.02;6.82;;;;;;;10.57;52.79;101392.38;4840145;29;20018;-79
2021/05/02 07:49:10;;;;;;;7.95;6.95;;;;;;;10.62;52.30;101389.97;4854609;29;20361;-81
2021/05/02 07:51:35;;;;;;;8.38;6.53;;;;;;;10.47;52.47;101381.88;4819198;29;20038;-80
2021/05/02 07:54:01;;;;;;;8.25;6.32;;;;;;;10.49;53.88;101368.25;4817281;29;20041;-80
2021/05/02 07:56:27;;;;;;;7.03;6.32;;;;;;;10.53;53.29;101364.19;4854777;29;20050;-79
2021/05/02 07:58:52;;;;;;;8.20;6.72;;;;;;;10.64;53.01;101385.25;4827832;29;20098;-80
2021/05/02 08:01:18;;;;;;;7.25;6.35;;;;;;;10.98;53.25;101397.28;4825654;29;20048;-81
2021/05/02 08:06:18;;;;;;;14.30;5.85;;;;;;;10.51;53.33;101296.25;5258677;24;20054;-80
2021/05/02 08:08:44;;;;;;;7.43;6.63;;;;;;;11.16;52.71;101386.97;4815480;29;20039;-78
2021/05/02 08:11:09;;;;;;;8.30;6.60;;;;;;;11.33;51.91;101397.53;4801146;29;20038;-78
2021/05/02 08:13:36;;;;;;;7.32;6.40;;;;;;;11.05;51.14;101385.56;4809547;29;20038;-78
2021/05/02 08:16:01;;;;;;;8.00;5.50;;;;;;;10.91;51.52;101391.00;4792436;29;20050;-78
2021/05/02 08:18:27;;;;;;;7.32;6.10;;;;;;;10.85;50.73;101381.78;4792207;29;20463;-78
2021/05/02 08:20:52;;;;;;;5.97;5.32;;;;;;;10.86;49.98;101383.47;4791067;29;20031;-78
2021/05/02 08:23:18;;;;;;;11.18;6.70;;;;;;;10.88;50.92;101385.97;4792836;29;20035;-79
2021/05/02 08:25:43;;;;;;;9.95;6.55;;;;;;;10.95;50.47;101386.88;4776611;29;20034;-78
2021/05/02 08:28:09;;;;;;;6.03;4.97;;;;;;;10.94;50.14;101383.38;4786390;29;20042;-78
2021/05/02 08:30:35;;;;;;;8.13;5.43;;;;;;;11.00;49.07;101382.63;4807814;29;20038;-77
2021/05/02 08:33:01;;;;;;;6.90;6.07;;;;;;;10.97;50.48;101383.00;4808635;29;20039;-78
2021/05/02 08:35:27;;;;;;;6.85;5.70;;;;;;;10.88;50.92;101376.03;4823186;29;20031;-78
2021/05/02 08:37:52;;;;;;;7.43;6.45;;;;;;;10.80;51.10;101362.69;4822985;29;20462;-78
2021/05/02 08:40:18;;;;;;;7.85;6.28;;;;;;;10.76;52.38;101375.69;4825628;29;20350;-78
2021/05/02 08:42:43;;;;;;;7.80;6.15;;;;;;;10.74;53.24;101371.50;4804781;29;20031;-79
2021/05/02 08:45:10;;;;;;;8.75;5.35;;;;;;;10.71;53.28;101379.94;4791933;29;20062;-78
2021/05/02 08:47:36;;;;;;;7.90;5.20;;;;;;;10.68;53.02;101377.63;4811723;29;20042;-79
2021/05/02 08:50:07;;;;;;;6.57;4.70;;;;;;;10.67;52.75;101378.66;4799777;29;20027;-79
2021/05/02 08:52:33;;;;;;;6.18;4.60;;;;;;;10.56;52.66;101379.94;4792864;29;20407;-78
2021/05/02 08:54:58;;;;;;;5.95;4.85;;;;;;;10.61;53.23;101382.09;4809076;29;20034;-79
2021/05/02 08:57:24;;;;;;;5.20;4.70;;;;;;;10.45;51.39;101375.84;4800754;29;20109;-79
2021/05/02 08:59:50;;;;;;;6.18;4.43;;;;;;;10.37;51.96;101372.44;4784796;29;20428;-79
2021/05/02 09:02:27;;;;;;;6.43;4.20;;;;;;;10.58;50.32;101380.59;4794517;29;20046;-82
2021/05/02 09:04:54;;;;;;;5.68;3.25;;;;;;;10.59;49.96;101368.78;4800037;29;20106;-77
2021/05/02 09:07:19;;;;;;;5.43;3.20;;;;;;;10.51;49.07;101367.03;4824785;29;20096;-76
2021/05/02 09:09:45;;;;;;;4.45;3.35;;;;;;;10.53;48.30;101380.34;4806057;29;20061;-77
2021/05/02 09:12:25;;;;;;;7.47;4.78;;;;;;;10.61;50.16;101371.31;4824939;29;20030;-77
2021/05/02 09:14:52;;;;;;;5.18;3.97;;;;;;;10.57;51.11;101368.16;4791083;29;20043;-77
2021/05/02 09:17:29;;;;;;;7.35;5.07;;;;;;;10.58;51.67;101373.34;4803829;29;20031;-77
2021/05/02 09:19:56;;;;;;;7.22;5.30;;;;;;;10.46;52.63;101352.47;4803706;29;20129;-77
2021/05/02 09:22:23;;;;;;;6.40;5.55;;;;;;;10.51;52.74;101369.72;4808683;29;20462;-77
2021/05/02 09:25:02;;;;;;;6.40;4.80;;;;;;;10.49;51.52;101357.47;4820875;29;20049;-77
2021/05/02 09:27:28;;;;;;;5.65;4.90;;;;;;;10.62;51.87;101371.13;4817645;29;20034;-77
2021/05/02 09:29:53;;;;;;;7.50;4.40;;;;;;;10.53;50.50;101337.28;4792415;29;20035;-77
2021/05/02 09:32:22;;;;;;;6.35;4.32;;;;;;;10.72;51.04;101358.22;4824058;29;20046;-77
2021/05/02 09:34:50;;;;;;;5.93;4.40;;;;;;;10.74;50.85;101360.75;4823736;29;20047;-77
2021/05/02 09:37:15;;;;;;;6.00;4.20;;;;;;;10.65;50.43;101341.16;4806926;29;20030;-77
2021/05/02 09:39:46;;;;;;;6.35;4.70;;;;;;;10.62;51.97;101354.97;4808228;29;20035;-77
2021/05/02 09:42:32;;;;;;;5.65;3.60;;;;;;;10.55;49.52;101346.81;4806191;29;20394;-77
2021/05/02 09:44:59;;;;;;;7.90;4.88;;;;;;;10.34;51.25;101312.59;4794649;29;20023;-77
2021/05/02 09:47:35;;;;;;;5.65;3.63;;;;;;;10.34;50.50;101326.03;4778389;29;20398;-77
2021/05/02 09:50:14;;;;;;;5.10;3.67;;;;;;;10.58;51.44;101337.53;4820068;29;20136;-77
2021/05/02 09:52:46;;;;;;;6.50;3.65;;;;;;;10.62;51.10;101346.06;4823831;29;20102;-77
2021/05/02 09:55:43;;;;;;;6.95;3.40;;;;;;;10.39;49.89;101292.34;4809481;29;20027;-77
2021/05/02 09:58:18;;;;;;;5.22;2.97;;;;;;;10.71;48.43;101343.09;4789398;29;20059;-77
2021/05/02 10:00:49;;;;;;;5.15;3.20;;;;;;;10.74;49.12;101337.34;4811486;29;20109;-77
2021/05/02 10:03:16;;;;;;;4.50;3.63;;;;;;;10.86;49.64;101342.25;4810117;29;20037;-77
2021/05/02 10:06:11;;;;;;;5.88;3.72;;;;;;;10.73;50.50;101316.84;4811886;29;20069;-77
2021/05/02 10:08:38;;;;;;;3.90;3.13;;;;;;;11.04;47.77;101331.91;4844850;29;20030;-77
2021/05/02 10:11:06;;;;;;;4.78;3.33;;;;;;;11.16;48.33;101332.25;4845898;29;20085;-77
2021/05/02 10:13:38;;;;;;;5.53;3.17;;;;;;;11.20;46.69;101333.56;4834719;29;20171;-77
2021/05/02 10:16:04;;;;;;;4.72;3.30;;;;;;;11.18;49.66;101325.66;4796281;29;20125;-77
2021/05/02 10:18:30;;;;;;;4.97;3.78;;;;;;;11.21;50.00;101330.66;4820184;29;20533;-76
2021/05/02 10:20:56;;;;;;;4.70;3.53;;;;;;;11.02;49.48;101325.88;4827352;29;20045;-76
2021/05/02 10:23:21;;;;;;;5.32;3.35;;;;;;;10.85;51.23;101321.72;4828402;29;20113;-77
2021/05/02 10:25:49;;;;;;;3.78;2.63;;;;;;;10.66;50.66;101325.81;4822272;29;20477;-77
2021/05/02 10:28:21;;;;;;;5.10;3.60;;;;;;;10.64;53.11;101334.09;4818049;29;20049;-77
2021/05/02 10:30:48;;;;;;;4.55;2.85;;;;;;;10.52;51.03;101319.44;4826314;29;20038;-77
2021/05/02 10:33:14;;;;;;;4.25;3.28;;;;;;;10.52;51.53;101312.19;4818435;29;20037;-77
2021/05/02 10:35:59;;;;;;;4.28;3.50;;;;;;;10.64;52.81;101342.19;4827482;29;20360;-76
2021/05/02 10:38:43;;;;;;;5.30;3.97;;;;;;;10.62;53.37;101336.13;4838381;29;20509;-77
2021/05/02 10:41:22;;;;;;;5.03;3.22;;;;;;;10.68;50.96;101340.78;4839424;29;20468;-76
2021/05/02 10:43:47;;;;;;;5.80;3.97;;;;;;;10.72;53.42;101339.38;4827368;29;20554;-76
2021/05/02 10:46:41;;;;;;;5.03;4.22;;;;;;;10.68;55.68;101337.25;4827506;29;20039;-76
2021/05/02 10:49:07;;;;;;;5.82;3.90;;;;;;;10.71;54.61;101335.03;4825891;29;20113;-77
2021/05/02 10:51:34;;;;;;;6.40;5.00;;;;;;;10.45;54.86;101294.31;4838096;29;20532;-75
2021/05/02 10:54:08;;;;;;;10.23;5.07;;;;;;;10.55;56.28;101325.28;4828413;29;20124;-76
2021/05/02 10:56:47;;;;;;;6.68;5.32;;;;;;;10.54;56.73;101341.63;4826801;29;20113;-76
2021/05/02 10:59:14;;;;;;;7.07;5.85;;;;;;;10.53;58.31;101334.59;4840720;29;20435;-76
2021/05/02 11:01:41;;;;;;;6.28;5.00;;;;;;;10.59;58.12;101331.13;4828071;29;20088;-76
2021/05/02 11:04:07;;;;;;;6.10;4.65;;;;;;;10.42;55.47;101305.44;4831074;29;20069;-76
2021/05/02 11:06:38;;;;;;;6.50;4.20;;;;;;;10.57;55.52;101333.19;4826980;29;20074;-76
2021/05/02 11:09:12;;;;;;;6.25;4.65;;;;;;;10.61;54.95;101328.25;4825690;29;20026;-76
2021/05/02 11:11:41;;;;;;;6.40;4.85;;;;;;;10.64;56.20;101335.97;4810536;29;20030;-76
2021/05/02 11:16:40;;;;;;;5.65;4.68;;;;;;;10.58;56.33;101330.28;4825909;29;20548;-76
2021/05/02 11:19:34;;;;;;;4.70;4.22;;;;;;;10.55;56.28;101303.75;4839766;29;20372;-76
2021/05/02 11:22:03;;;;;;;5.43;4.20;;;;;;;10.68;54.80;101327.31;4843806;29;20038;-76
2021/05/02 11:24:40;;;;;;;5.38;3.40;;;;;;;10.78;53.98;101321.66;4830808;29;20065;-77
2021/05/02 11:30:01;;;;;;;4.35;3.90;;;;;;;10.94;54.83;101331.38;4823820;29;20042;-76
2021/05/02 11:32:29;;;;;;;6.20;4.05;;;;;;;10.93;55.71;101318.94;4809303;29;20145;-76
2021/05/02 11:34:57;;;;;;;7.70;4.53;;;;;;;10.70;56.04;101327.97;4821084;29;20468;-76
2021/05/02 11:37:56;;;;;;;6.97;4.68;;;;;;;10.70;55.74;101322.59;4809667;29;20030;-77
2021/05/02 11:40:29;;;;;;;6.63;4.78;;;;;;;10.93;56.06;101324.34;4813951;29;20022;-76
2021/05/02 11:43:18;;;;;;;5.82;4.93;;;;;;;10.86;56.33;101318.00;4808472;29;20238;-76